Latest Weather Observations for Parkes Airport

IDN60801

Issued at 10:05 am EDT Tuesday 23 December 2014 (issued every 30 minutes, with the page automatically refreshed every 10 minutes)

About weather observations | Map of weather stations | Latest weather observations for NSW | Other Formats
Station Details ID: 065068 Name: PARKES AIRPORT AWS Lat: -33.13 Lon: 148.24 Height: 323.3 m
Data from the previous 72 hours. | See also: Recent months at Parkes Airport
Date/Time
EDT
Temp
°C
App
Temp
°C
Dew
Point
Rel
Hum
%
Delta-T
°C
Wind Press
QNH
hPa
Press
MSL
hPa
Rain
since 9 am
mm
Dir
 
Spd
km/h
Gust
km/h
Spd
kts
Gust
kts
23/10:00am 26.9 23.5 17.7 57 5.9 N 32 44 17 24 1013.0 1011.6 0.0
23/09:30am 26.1 22.6 18.0 61 5.2 NNE 33 46 18 25 1013.3 1011.9 0.0
23/09:00am 25.0 20.8 18.0 65 4.5 NNE 37 48 20 26 1013.4 1012.0 0.6
23/08:30am 24.4 21.1 18.3 69 3.9 N 33 46 18 25 1013.5 1012.1 0.6
23/08:14am 23.9 21.2 17.6 68 4.0 NNE 28 46 15 25 1013.3 1011.9 0.6
23/08:00am 23.4 21.9 18.5 74 3.1 NNE 24 32 13 17 1013.2 1011.8 0.6
23/07:30am 22.2 21.2 18.0 77 2.7 NE 20 26 11 14 1013.1 1011.7 0.6
23/07:00am 21.1 20.0 17.7 81 2.1 NE 20 26 11 14 1012.8 1011.3 0.6
23/06:30am 20.1 18.8 17.3 84 1.7 NE 20 28 11 15 1012.6 1011.1 0.6
23/06:00am 19.9 18.5 16.9 83 1.8 NE 20 28 11 15 1012.6 1011.1 0.6
23/05:30am 19.6 19.4 16.6 83 1.8 NE 13 15 7 8 1012.7 1011.2 0.4
23/05:00am 19.9 19.6 16.5 81 2.1 NE 13 17 7 9 1012.1 1010.6 0.4
23/04:30am 20.5 19.2 16.7 79 2.3 NE 19 26 10 14 1011.7 1010.2 0.4
23/04:00am 20.6 18.1 17.0 80 2.2 NE 26 35 14 19 1011.9 1010.4 0.4
23/03:30am 21.2 17.2 16.6 75 2.8 NNE 33 46 18 25 1012.0 1010.5 0.4
23/03:20am 21.0 18.0 16.8 77 2.6 NNE 28 43 15 23 1012.6 1011.1 0.4
23/03:00am 20.8 19.9 16.8 78 2.5 NNE 17 22 9 12 1012.9 1011.5 0.4
23/02:30am 21.3 20.7 16.7 75 2.8 NE 15 20 8 11 1013.5 1012.1 0.4
23/02:00am 21.0 20.5 16.8 77 2.6 NE 15 19 8 10 1013.9 1012.5 0.4
23/01:30am 20.7 21.6 17.5 82 2.0 NE 9 13 5 7 1014.2 1012.7 0.4
23/01:00am 20.4 20.8 17.2 82 2.0 ENE 11 13 6 7 1014.2 1012.7 0.2
23/12:30am 20.6 18.1 17.2 81 2.1 ENE 26 33 14 18 1014.3 1012.8 0.2
23/12:00am 20.6 20.0 17.6 83 1.9 NE 17 20 9 11 1015.0 1013.5 0.2
 
Date/Time
EDT
Temp
°C
App
Temp
°C
Dew
Point
Rel
Hum
%
Delta-T
°C
Wind Press
QNH
hPa
Press
MSL
hPa
Rain
since 9 am
mm
Dir
 
Spd
km/h
Gust
km/h
Spd
kts
Gust
kts
22/11:30pm 20.7 20.1 17.5 82 2.0 ENE 17 20 9 11 1015.3 1013.8 0.2
22/11:00pm 20.6 17.5 17.4 82 2.0 ENE 30 39 16 21 1014.6 1013.1 0.2
22/10:30pm 20.3 16.8 17.5 84 1.7 NNE 32 41 17 22 1014.9 1013.4 0.2
22/10:00pm 21.9 17.9 16.6 72 3.3 N 33 43 18 23 1014.9 1013.4 0.0
22/09:30pm 23.7 19.8 16.5 64 4.5 NNE 32 43 17 23 1013.8 1012.4 0.0
22/09:00pm 23.5 19.7 16.8 66 4.2 E 32 41 17 22 1011.9 1010.4 0.0
22/08:50pm 23.5 19.4 16.5 65 4.3 ENE 33 52 18 28 1012.1 1010.6 0.0
22/08:44pm 24.1 20.1 16.6 63 4.7 ENE 33 52 18 28 1012.1 1010.6 0.0
22/08:30pm 22.9 19.4 16.4 67 4.0 ESE 30 52 16 28 1011.5 1010.0 0.0
22/08:10pm 22.4 20.0 17.3 73 3.2 N 26 43 14 23 1013.1 1011.7 0.0
22/08:00pm 21.8 15.7 16.7 73 3.1 NNW 44 69 24 37 1013.5 1012.1 0.0
22/07:52pm 24.8 21.9 15.1 54 5.9 WNW 24 69 13 37 1013.0 1011.6 0.0
22/07:50pm 25.5 23.3 14.9 52 6.4 WNW 20 32 11 17 1013.0 1011.6 0.0
22/07:30pm 30.7 25.8 10.1 28 11.9 NNE 26 33 14 18 1010.6 1009.2 0.0
22/07:00pm 31.9 26.8 10.6 27 12.4 NE 28 41 15 22 1009.9 1008.4 0.0
22/06:30pm 32.6 27.5 10.6 26 12.9 NE 28 33 15 18 1009.7 1008.2 0.0
22/06:00pm 33.6 29.4 9.6 23 13.9 N 22 33 12 18 1009.4 1007.9 0.0
22/05:30pm 34.5 28.6 7.5 19 15.2 N 28 33 15 18 1009.7 1008.2 0.0
22/05:00pm 35.0 29.4 10.1 22 14.6 NNW 30 37 16 20 1009.6 1008.1 0.0
22/04:30pm 35.6 29.7 7.6 18 15.9 NNW 28 41 15 22 1009.9 1008.4 0.0
22/04:00pm 34.9 29.8 6.2 17 15.9 N 22 32 12 17 1010.3 1008.9 0.0
22/03:30pm 36.8 31.5 8.6 18 16.3 N 26 37 14 20 1010.8 1009.3 0.0
22/03:00pm 36.0 30.8 7.1 17 16.3 N 24 37 13 20 1011.2 1009.7 0.0
22/02:30pm 34.9 29.8 10.7 23 14.3 NNE 28 46 15 25 1011.7 1010.2 0.0
22/02:10pm 36.0 31.2 11.6 23 14.7 NNW 28 48 15 26 1012.0 1010.5 0.0
22/02:00pm 35.5 29.8 11.2 23 14.5 N 32 48 17 26 1012.3 1010.8 0.0
22/01:52pm 35.6 30.7 12.5 24 14.1 NNW 30 48 16 26 1012.4 1010.9 0.0
22/01:30pm 34.6 29.6 12.3 26 13.5 N 30 46 16 25 1012.8 1011.3 0.0
22/01:00pm 34.6 29.4 12.9 27 13.3 N 32 43 17 23 1013.5 1012.1 0.0
22/12:30pm 33.9 28.4 12.3 27 13.0 N 33 43 18 23 1014.2 1012.7 0.0
22/12:00pm 32.1 26.2 12.3 29 11.9 N 35 46 19 25 1014.7 1013.2 0.0
22/11:30am 32.2 26.7 11.9 29 12.1 N 32 46 17 25 1014.8 1013.3 0.0
22/11:00am 30.2 25.1 13.0 34 10.3 N 32 43 17 23 1015.0 1013.5 0.0
22/10:30am 29.2 24.8 13.0 37 9.7 N 28 39 15 21 1015.1 1013.6 0.0
22/10:00am 29.0 24.2 14.0 39 9.1 N 32 41 17 22 1015.2 1013.7 0.0
22/09:30am 28.2 22.5 12.9 38 9.1 N 35 46 19 25 1015.1 1013.6 0.0
22/09:00am 28.2 23.3 13.7 41 8.7 NNE 32 43 17 23 1015.1 1013.6 0.0
22/08:30am 26.9 21.9 13.3 43 8.1 NNE 32 41 17 22 1015.0 1013.5 0.0
22/08:00am 26.4 20.8 13.2 44 7.8 N 35 46 19 25 1014.8 1013.3 0.0
22/07:30am 25.6 20.5 13.1 46 7.4 NNE 32 43 17 23 1014.7 1013.2 0.0
22/07:00am 24.6 20.8 13.5 50 6.6 NNE 26 35 14 19 1014.7 1013.2 0.0
22/06:30am 24.0 20.0 12.9 50 6.5 NNE 26 39 14 21 1014.4 1012.9 0.0
22/06:00am 24.0 20.3 12.6 49 6.6 NNE 24 32 13 17 1013.9 1012.5 0.0
22/05:30am 24.2 20.3 12.2 47 6.9 NNE 24 32 13 17 1013.5 1012.1 0.0
22/05:00am 24.6 20.7 12.2 46 7.2 NNE 24 32 13 17 1012.8 1011.3 0.0
22/04:30am 24.8 21.2 11.7 44 7.5 NE 22 30 12 16 1012.6 1011.1 0.0
22/04:00am 23.1 22.4 11.5 48 6.6 E 6 11 3 6 1012.8 1011.3 0.0
22/03:30am 23.4 22.3 10.8 45 7.1 E 7 13 4 7 1012.8 1011.3 0.0
22/03:00am 23.8 21.3 11.2 45 7.2 ENE 15 17 8 9 1012.9 1011.5 0.0
22/02:30am 24.9 22.0 11.1 42 7.9 E 17 24 9 13 1013.0 1011.6 0.0
22/02:00am 24.3 23.1 11.6 45 7.3 ENE 9 17 5 9 1013.0 1011.6 0.0
22/01:30am 23.1 21.8 11.2 47 6.7 NNE 9 13 5 7 1013.3 1011.9 0.0
22/01:00am 22.1 20.0 9.6 45 6.8 ENE 11 15 6 8 1013.6 1012.2 0.0
22/12:30am 21.3 19.0 8.9 45 6.7 ENE 11 13 6 7 1013.7 1012.3 0.0
22/12:00am 22.1 19.4 8.9 43 7.1 ENE 13 17 7 9 1013.8 1012.4 0.0
 
Date/Time
EDT
Temp
°C
App
Temp
°C
Dew
Point
Rel
Hum
%
Delta-T
°C
Wind Press
QNH
hPa
Press
MSL
hPa
Rain
since 9 am
mm
Dir
 
Spd
km/h
Gust
km/h
Spd
kts
Gust
kts
21/11:30pm 22.2 19.5 9.0 43 7.2 E 13 15 7 8 1013.5 1012.1 0.0
21/11:00pm 22.3 20.4 9.1 43 7.2 ENE 9 11 5 6 1013.6 1012.2 0.0
21/10:30pm 22.9 20.2 9.0 41 7.6 E 13 15 7 8 1013.4 1012.0 0.0
21/10:00pm 22.4 20.1 8.9 42 7.3 ENE 11 13 6 7 1013.1 1011.7 0.0
21/09:30pm 23.8 23.1 8.6 38 8.2 N 2 7 1 4 1013.2 1011.8 0.0
21/09:00pm 24.2 22.5 8.2 36 8.6 E 7 7 4 4 1012.8 1011.3 0.0
21/08:30pm 25.7 25.2 7.8 32 9.7 CALM 0 0 0 0 1012.5 1011.0 0.0
21/08:00pm 30.1 28.3 7.3 24 12.5 NNE 6 7 3 4 1012.3 1010.8 0.0
21/07:30pm 32.0 30.1 7.6 22 13.6 NE 7 11 4 6 1012.2 1010.7 0.0
21/07:00pm 33.0 32.1 7.8 21 14.2 S 2 9 1 5 1012.2 1010.7 0.0
21/06:30pm 33.0 30.4 6.3 19 14.6 NNE 9 17 5 9 1012.0 1010.5 0.0
21/06:00pm 32.3 30.0 5.7 19 14.4 NW 7 11 4 6 1012.0 1010.5 0.0
21/05:30pm 33.6 31.0 6.0 18 15.1 NNW 9 17 5 9 1012.0 1010.5 0.0
21/05:00pm 34.0 29.9 6.3 18 15.3 NNW 17 24 9 13 1012.3 1010.8 0.0
21/04:30pm 33.2 30.5 7.2 20 14.5 NNE 11 19 6 10 1012.7 1011.2 0.0
21/04:00pm 32.4 30.4 7.3 21 13.9 SE 7 17 4 9 1013.0 1011.6 0.0
21/03:30pm 33.4 30.1 6.6 19 14.8 N 13 20 7 11 1013.5 1012.1 0.0
21/03:00pm 33.3 29.7 6.6 19 14.7 NW 15 28 8 15 1013.9 1012.5 0.0
21/02:30pm 32.9 29.1 9.0 23 13.7 NW 19 28 10 15 1014.3 1012.8 0.0
21/02:00pm 31.7 28.9 8.7 24 13.0 N 13 30 7 16 1014.5 1013.0 0.0
21/01:30pm 32.2 28.6 8.4 23 13.4 NW 17 33 9 18 1015.1 1013.6 0.0
21/01:00pm 31.0 29.2 9.3 26 12.3 NW 9 20 5 11 1015.5 1014.0 0.0
21/12:30pm 31.7 28.8 9.8 26 12.6 NNW 15 26 8 14 1015.7 1014.3 0.0
21/12:00pm 30.8 26.7 10.2 28 11.9 NNE 22 30 12 16 1016.1 1014.7 0.0
21/11:30am 30.2 25.6 9.7 28 11.7 N 24 33 13 18 1016.3 1014.9 0.0
21/11:00am 29.7 24.9 10.3 30 11.1 N 26 39 14 21 1016.8 1015.4 0.0
21/10:30am 28.2 22.7 9.0 30 10.7 NNE 28 39 15 21 1016.8 1015.4 0.0
21/10:00am 27.5 20.7 6.8 27 11.1 N 32 39 17 21 1016.8 1015.4 0.0
21/09:30am 26.9 21.9 7.9 30 10.4 NNE 24 35 13 19 1016.8 1015.4 0.0
21/09:00am 26.1 22.0 7.7 31 9.9 NE 19 24 10 13 1016.6 1015.2 0.0
21/08:30am 25.1 20.7 7.3 32 9.5 NE 20 30 11 16 1016.6 1015.2 0.0
21/08:00am 23.6 19.0 8.1 37 8.3 NE 22 30 12 16 1016.4 1015.0 0.0
21/07:30am 22.1 19.1 9.3 44 7.0 ENE 15 19 8 10 1016.2 1014.8 0.0
21/07:00am 20.5 16.5 9.1 48 6.1 ENE 20 28 11 15 1015.8 1014.4 0.0
21/06:30am 19.4 15.7 9.6 53 5.3 ENE 19 24 10 13 1015.6 1014.2 0.0
21/06:00am 18.8 15.6 9.8 56 4.9 ENE 17 22 9 12 1015.4 1013.9 0.0
21/05:30am 19.0 15.5 10.3 57 4.7 ENE 19 24 10 13 1015.0 1013.5 0.0
21/05:00am 19.2 16.3 11.0 59 4.5 NE 17 20 9 11 1014.8 1013.3 0.0
21/04:30am 19.3 16.7 10.8 58 4.7 ENE 15 20 8 11 1014.7 1013.2 0.0
21/04:00am 19.7 16.5 11.2 58 4.7 ENE 19 24 10 13 1014.5 1013.0 0.0
21/03:30am 20.1 16.3 11.3 57 4.9 ENE 22 32 12 17 1014.4 1012.9 0.0
21/03:00am 19.9 16.4 10.9 56 5.0 ENE 20 30 11 16 1014.5 1013.0 0.0
21/02:30am 19.7 17.1 10.7 56 5.0 ENE 15 19 8 10 1014.6 1013.1 0.0
21/02:00am 19.7 16.8 9.6 52 5.5 ENE 15 19 8 10 1014.8 1013.3 0.0
21/01:30am 19.7 16.5 8.4 48 6.0 ENE 15 20 8 11 1014.9 1013.4 0.0
21/01:00am 18.6 14.4 5.8 43 6.4 E 17 20 9 11 1015.1 1013.6 0.0
21/12:30am 14.9 12.0 4.9 51 4.8 NE 9 17 5 9 1015.2 1013.7 0.0
21/12:00am 15.5 12.6 4.5 48 5.2 ENE 9 11 5 6 1015.2 1013.7 0.0
 
Date/Time
EDT
Temp
°C
App
Temp
°C
Dew
Point
Rel
Hum
%
Delta-T
°C
Wind Press
QNH
hPa
Press
MSL
hPa
Rain
since 9 am
mm
Dir
 
Spd
km/h
Gust
km/h
Spd
kts
Gust
kts
20/11:30pm 16.9 13.2 4.6 44 5.9 ENE 13 15 7 8 1015.3 1013.8 0.0
20/11:00pm 17.0 13.2 4.0 42 6.2 E 13 15 7 8 1015.2 1013.7 0.0
20/10:30pm 17.8 14.1 4.4 41 6.5 E 13 15 7 8 1015.2 1013.7 0.0
20/10:00pm 18.2 16.5 4.0 39 6.8 ENE 2 7 1 4 1015.1 1013.6 0.0
20/09:30pm 20.0 17.1 2.8 32 8.2 SSW 7 7 4 4 1014.8 1013.3 0.0
20/09:00pm 22.5 19.6 2.6 27 9.6 SSW 7 7 4 4 1014.6 1013.1 0.0
20/08:30pm 24.0 21.0 2.2 24 10.5 SSW 7 9 4 5 1014.3 1012.8 0.0
20/08:00pm 25.9 22.1 1.9 21 11.7 SSW 11 15 6 8 1014.1 1012.6 0.0
20/07:30pm 27.8 23.7 2.1 19 12.7 SW 13 20 7 11 1013.8 1012.4 0.0
20/07:00pm 28.7 24.2 2.1 18 13.3 SSW 15 20 8 11 1013.6 1012.2 0.0
20/06:30pm 28.9 23.7 2.2 18 13.3 SSW 19 24 10 13 1013.2 1011.8 0.0
20/06:00pm 29.4 24.5 1.8 17 13.8 SW 17 28 9 15 1013.1 1011.7 0.0
20/05:30pm 29.9 25.0 2.2 17 13.9 WSW 17 26 9 14 1013.0 1011.6 0.0
20/05:00pm 29.4 24.5 1.8 17 13.8 SW 17 24 9 13 1013.1 1011.7 0.0
20/04:30pm 29.4 24.2 2.6 18 13.5 SW 19 32 10 17 1013.3 1011.9 0.0
20/04:00pm 29.7 25.6 2.1 17 13.8 SSW 13 24 7 13 1013.7 1012.3 0.0
20/03:30pm 29.5 25.1 2.7 18 13.6 WSW 15 30 8 16 1014.2 1012.7 0.0
20/03:00pm 28.6 24.1 2.0 18 13.2 SW 15 32 8 17 1014.7 1013.2 0.0
20/02:30pm 28.1 24.0 2.3 19 12.9 WSW 13 20 7 11 1015.0 1013.5 0.0
20/02:00pm 27.7 24.1 2.7 20 12.5 SW 11 24 6 13 1015.4 1013.9 0.0
20/01:30pm 26.7 22.3 2.6 21 12.0 SW 15 26 8 14 1015.9 1014.5 0.0
20/01:00pm 26.0 22.6 3.9 24 11.2 SW 11 28 6 15 1016.2 1014.8 0.0
20/12:30pm 25.3 21.5 3.9 25 10.8 SW 13 17 7 9 1016.7 1015.3 0.0
20/12:00pm 25.7 22.2 5.3 27 10.5 WSW 13 24 7 13 1017.1 1015.7 0.0
20/11:30am 24.4 22.1 5.7 30 9.7 WSW 7 13 4 7 1017.4 1015.9 0.0
20/11:00am 24.0 21.4 6.3 32 9.2 ESE 9 15 5 8 1017.6 1016.1 0.0
20/10:30am 22.9 19.9 5.8 33 8.8 N 11 20 6 11 1017.8 1016.3 0.0

Other Formats:

Comma delimited format used in spreadsheet applications
http://www.bom.gov.au/fwo/IDN60801/IDN60801.95717.axf

JavaScript Object Notation format (JSON) in row-major order
http://www.bom.gov.au/fwo/IDN60801/IDN60801.95717.json